Погода Шушана неделю

Верхне-Карабахский район, Азербайджан

13 - 19 июля
  • 13июля
    Сегодня
    +15°
    +26°
    Практически безоблачно
    ВремяПогодаТемператураВлажностьДавлениеВетер, м/сВероятность осадков
    01:00Ясно и безоблачно+18°C77 %662 мм0.9 м/с2 %
    04:00Ясно и безоблачно+17°C75 %662 мм0.8 м/с2 %
    07:00Ясно и безоблачно+19°C67 %663 мм0.8 м/с2 %
    10:00Ясно и безоблачно+23°C49 %664 мм2.6 м/с2 %
    13:00Практически безоблачно+24°C48 %663 мм3.2 м/с4 %
    16:00Практически безоблачно+24°C50 %663 мм3.3 м/с5 %
    19:00Небольшая облачность+23°C54 %663 мм2.8 м/с4 %
    22:00Ясно и безоблачно+18°C67 %662 мм1.5 м/с2 %
  • 14июля
    Воскресенье
    +15°
    +23°
    Небольшая облачность
    ВремяПогодаТемператураВлажностьДавлениеВетер, м/сВероятность осадков
    01:00Ясно и безоблачно+16°C70 %662 мм1.2 м/с2 %
    04:00Ясно и безоблачно+16°C65 %662 мм0.5 м/с2 %
    07:00Ясно и безоблачно+17°C68 %662 мм0.4 м/с2 %
    10:00Ясно и безоблачно+20°C63 %663 мм1.7 м/с3 %
    13:00Небольшая облачность+22°C62 %663 мм2.7 м/с8 %
    16:00Облачно с прояснениями+23°C59 %663 мм1.7 м/с9 %
    19:00Облачно с прояснениями+22°C64 %663 мм2.7 м/с3 %
    22:00Практически безоблачно+20°C73 %663 мм1.8 м/с3 %
  • 15июля
    Понедельник
    +14°
    +25°
    Ясно и безоблачно
    ВремяПогодаТемператураВлажностьДавлениеВетер, м/сВероятность осадков
    01:00Практически безоблачно+18°C57 %663 мм1.6 м/с1 %
    04:00Ясно и безоблачно+16°C63 %662 мм0.6 м/с3 %
    07:00Ясно и безоблачно+17°C60 %663 мм0.5 м/с3 %
    10:00Ясно и безоблачно+20°C50 %664 мм1.7 м/с3 %
    13:00Ясно и безоблачно+24°C43 %664 мм3.6 м/с8 %
    16:00Ясно и безоблачно+25°C41 %664 мм3.6 м/с7 %
    19:00Ясно и безоблачно+23°C52 %664 мм2.3 м/с3 %
    22:00Ясно и безоблачно+18°C69 %663 мм1.4 м/с2 %
  • 16июля
    Вторник
    +15°
    +27°
    Ясно и безоблачно
    ВремяПогодаТемператураВлажностьДавлениеВетер, м/сВероятность осадков
    01:00Ясно и безоблачно+16°C74 %663 мм2.1 м/с2 %
    04:00Ясно и безоблачно+15°C75 %663 мм1.4 м/с2 %
    07:00Ясно и безоблачно+16°C72 %663 мм1.3 м/с2 %
    10:00Ясно и безоблачно+22°C47 %665 мм1.4 м/с2 %
    13:00Ясно и безоблачно+26°C42 %665 мм2.9 м/с2 %
    16:00Ясно и безоблачно+26°C39 %665 мм2.8 м/с2 %
    19:00Ясно и безоблачно+24°C49 %665 мм1.6 м/с2 %
    22:00Ясно и безоблачно+19°C61 %664 мм1.1 м/с2 %
  • 17июля
    Среда
    +17°
    +27°
    Ясно и безоблачно
    ВремяПогодаТемператураВлажностьДавлениеВетер, м/сВероятность осадков
    01:00Ясно и безоблачно+17°C67 %664 мм1.5 м/с2 %
    04:00Ясно и безоблачно+17°C65 %663 мм1.1 м/с2 %
    07:00Ясно и безоблачно+18°C59 %664 мм0.6 м/с2 %
    10:00Ясно и безоблачно+24°C35 %666 мм1.9 м/с2 %
    13:00Ясно и безоблачно+26°C33 %666 мм3.1 м/с2 %
    16:00Ясно и безоблачно+27°C35 %665 мм3.0 м/с2 %
    19:00Ясно и безоблачно+25°C49 %665 мм2.1 м/с2 %
    22:00Ясно и безоблачно+19°C62 %664 мм1.8 м/с4 %
Мы используем cookies
Соглашаюсь